sensor_id;sensor_type;location;lat;lon;timestamp;P1;durP1;ratioP1;P2;durP2;ratioP2
50815;SDS011;39717;47.324;8.788;2022-12-18T00:01:38;55.13;;;25.97;;
50815;SDS011;39717;47.324;8.788;2022-12-18T00:04:05;55.40;;;26.57;;
50815;SDS011;39717;47.324;8.788;2022-12-18T00:06:31;56.33;;;27.37;;
50815;SDS011;39717;47.324;8.788;2022-12-18T00:08:58;51.00;;;25.03;;
50815;SDS011;39717;47.324;8.788;2022-12-18T00:11:26;58.03;;;25.60;;
50815;SDS011;39717;47.324;8.788;2022-12-18T00:13:54;50.53;;;25.30;;
50815;SDS011;39717;47.324;8.788;2022-12-18T00:16:21;54.07;;;26.67;;
50815;SDS011;39717;47.324;8.788;2022-12-18T00:18:48;54.63;;;24.37;;
50815;SDS011;39717;47.324;8.788;2022-12-18T00:21:15;53.40;;;25.97;;
50815;SDS011;39717;47.324;8.788;2022-12-18T00:23:42;51.70;;;26.20;;
50815;SDS011;39717;47.324;8.788;2022-12-18T00:26:13;58.70;;;27.57;;
50815;SDS011;39717;47.324;8.788;2022-12-18T00:28:40;54.37;;;26.50;;
50815;SDS011;39717;47.324;8.788;2022-12-18T00:31:08;55.17;;;26.50;;
50815;SDS011;39717;47.324;8.788;2022-12-18T00:33:35;58.73;;;25.80;;
50815;SDS011;39717;47.324;8.788;2022-12-18T00:36:02;56.57;;;26.17;;
50815;SDS011;39717;47.324;8.788;2022-12-18T00:38:28;48.20;;;24.50;;
50815;SDS011;39717;47.324;8.788;2022-12-18T00:40:55;54.73;;;24.30;;
50815;SDS011;39717;47.324;8.788;2022-12-18T00:43:21;58.27;;;27.37;;
50815;SDS011;39717;47.324;8.788;2022-12-18T00:45:47;58.30;;;26.37;;
50815;SDS011;39717;47.324;8.788;2022-12-18T00:48:13;53.20;;;25.80;;
50815;SDS011;39717;47.324;8.788;2022-12-18T00:50:39;51.07;;;24.43;;
50815;SDS011;39717;47.324;8.788;2022-12-18T00:53:06;47.00;;;24.27;;
50815;SDS011;39717;47.324;8.788;2022-12-18T00:55:32;54.37;;;25.80;;
50815;SDS011;39717;47.324;8.788;2022-12-18T00:57:58;51.70;;;25.77;;
50815;SDS011;39717;47.324;8.788;2022-12-18T01:00:24;50.13;;;25.17;;
50815;SDS011;39717;47.324;8.788;2022-12-18T01:02:50;53.60;;;24.80;;
50815;SDS011;39717;47.324;8.788;2022-12-18T01:05:16;54.67;;;25.93;;
50815;SDS011;39717;47.324;8.788;2022-12-18T01:07:42;53.77;;;25.07;;
50815;SDS011;39717;47.324;8.788;2022-12-18T01:10:10;60.30;;;26.13;;
50815;SDS011;39717;47.324;8.788;2022-12-18T01:12:37;53.47;;;26.03;;
50815;SDS011;39717;47.324;8.788;2022-12-18T01:15:04;53.30;;;24.13;;
50815;SDS011;39717;47.324;8.788;2022-12-18T01:17:30;51.23;;;25.53;;
50815;SDS011;39717;47.324;8.788;2022-12-18T01:19:56;52.53;;;25.67;;
50815;SDS011;39717;47.324;8.788;2022-12-18T01:22:23;47.70;;;22.47;;
50815;SDS011;39717;47.324;8.788;2022-12-18T01:24:49;55.47;;;26.57;;
50815;SDS011;39717;47.324;8.788;2022-12-18T01:27:15;53.30;;;26.53;;
50815;SDS011;39717;47.324;8.788;2022-12-18T01:29:41;57.00;;;27.87;;
50815;SDS011;39717;47.324;8.788;2022-12-18T01:32:07;53.40;;;25.27;;
50815;SDS011;39717;47.324;8.788;2022-12-18T01:34:35;55.30;;;25.90;;
50815;SDS011;39717;47.324;8.788;2022-12-18T01:37:02;55.87;;;26.47;;
50815;SDS011;39717;47.324;8.788;2022-12-18T01:39:29;55.93;;;26.17;;
50815;SDS011;39717;47.324;8.788;2022-12-18T01:41:55;48.77;;;24.47;;
50815;SDS011;39717;47.324;8.788;2022-12-18T01:47:14;60.13;;;30.83;;
50815;SDS011;39717;47.324;8.788;2022-12-18T01:49:41;56.57;;;27.60;;
50815;SDS011;39717;47.324;8.788;2022-12-18T01:52:07;59.90;;;33.73;;
50815;SDS011;39717;47.324;8.788;2022-12-18T01:54:34;53.67;;;26.13;;
50815;SDS011;39717;47.324;8.788;2022-12-18T01:57:00;52.67;;;26.03;;
50815;SDS011;39717;47.324;8.788;2022-12-18T01:59:26;49.63;;;25.23;;
50815;SDS011;39717;47.324;8.788;2022-12-18T02:01:54;53.77;;;26.07;;
50815;SDS011;39717;47.324;8.788;2022-12-18T02:04:23;54.50;;;27.23;;
50815;SDS011;39717;47.324;8.788;2022-12-18T02:06:55;50.30;;;25.73;;
50815;SDS011;39717;47.324;8.788;2022-12-18T02:09:27;60.27;;;28.40;;
50815;SDS011;39717;47.324;8.788;2022-12-18T02:12:00;53.23;;;26.23;;
50815;SDS011;39717;47.324;8.788;2022-12-18T02:17:11;52.37;;;24.43;;
50815;SDS011;39717;47.324;8.788;2022-12-18T02:19:54;52.90;;;25.10;;
50815;SDS011;39717;47.324;8.788;2022-12-18T02:25:19;51.27;;;25.57;;
50815;SDS011;39717;47.324;8.788;2022-12-18T02:27:49;54.73;;;26.17;;
50815;SDS011;39717;47.324;8.788;2022-12-18T02:30:17;52.60;;;24.47;;
50815;SDS011;39717;47.324;8.788;2022-12-18T02:32:46;53.57;;;27.40;;
50815;SDS011;39717;47.324;8.788;2022-12-18T02:35:15;49.07;;;23.33;;
50815;SDS011;39717;47.324;8.788;2022-12-18T02:37:42;51.07;;;25.43;;
50815;SDS011;39717;47.324;8.788;2022-12-18T02:40:09;54.70;;;25.63;;
50815;SDS011;39717;47.324;8.788;2022-12-18T02:42:36;53.37;;;25.23;;
50815;SDS011;39717;47.324;8.788;2022-12-18T02:45:02;57.10;;;27.50;;
50815;SDS011;39717;47.324;8.788;2022-12-18T02:47:29;50.73;;;24.83;;
50815;SDS011;39717;47.324;8.788;2022-12-18T02:52:39;57.20;;;26.83;;
50815;SDS011;39717;47.324;8.788;2022-12-18T02:57:44;51.97;;;25.23;;
50815;SDS011;39717;47.324;8.788;2022-12-18T03:00:13;55.73;;;26.17;;
50815;SDS011;39717;47.324;8.788;2022-12-18T03:05:31;51.47;;;24.60;;
50815;SDS011;39717;47.324;8.788;2022-12-18T03:08:10;47.50;;;24.67;;
50815;SDS011;39717;47.324;8.788;2022-12-18T03:10:40;50.30;;;24.97;;
50815;SDS011;39717;47.324;8.788;2022-12-18T03:13:11;51.30;;;24.87;;
50815;SDS011;39717;47.324;8.788;2022-12-18T03:15:42;45.70;;;23.57;;
50815;SDS011;39717;47.324;8.788;2022-12-18T03:18:17;49.97;;;24.53;;
50815;SDS011;39717;47.324;8.788;2022-12-18T03:20:45;45.53;;;23.87;;
50815;SDS011;39717;47.324;8.788;2022-12-18T03:23:14;52.73;;;23.90;;
50815;SDS011;39717;47.324;8.788;2022-12-18T03:25:42;47.20;;;23.07;;
50815;SDS011;39717;47.324;8.788;2022-12-18T03:28:10;54.70;;;24.67;;
50815;SDS011;39717;47.324;8.788;2022-12-18T03:30:38;47.93;;;24.63;;
50815;SDS011;39717;47.324;8.788;2022-12-18T03:33:07;50.37;;;24.93;;
50815;SDS011;39717;47.324;8.788;2022-12-18T03:35:37;57.23;;;26.83;;
50815;SDS011;39717;47.324;8.788;2022-12-18T03:38:04;53.17;;;27.10;;
50815;SDS011;39717;47.324;8.788;2022-12-18T03:40:51;62.57;;;30.53;;
50815;SDS011;39717;47.324;8.788;2022-12-18T03:43:37;61.80;;;31.13;;
50815;SDS011;39717;47.324;8.788;2022-12-18T03:46:15;58.93;;;29.13;;
50815;SDS011;39717;47.324;8.788;2022-12-18T03:48:52;56.50;;;29.20;;
50815;SDS011;39717;47.324;8.788;2022-12-18T03:51:24;62.03;;;30.80;;
50815;SDS011;39717;47.324;8.788;2022-12-18T03:54:02;56.97;;;28.30;;
50815;SDS011;39717;47.324;8.788;2022-12-18T03:56:31;60.20;;;30.63;;
50815;SDS011;39717;47.324;8.788;2022-12-18T03:58:58;64.87;;;31.20;;
50815;SDS011;39717;47.324;8.788;2022-12-18T04:01:31;65.83;;;32.20;;
50815;SDS011;39717;47.324;8.788;2022-12-18T04:03:59;66.40;;;30.20;;
50815;SDS011;39717;47.324;8.788;2022-12-18T04:06:26;61.83;;;30.33;;
50815;SDS011;39717;47.324;8.788;2022-12-18T04:08:53;59.47;;;29.90;;
50815;SDS011;39717;47.324;8.788;2022-12-18T04:11:19;56.77;;;30.13;;
50815;SDS011;39717;47.324;8.788;2022-12-18T04:13:46;59.70;;;30.83;;
50815;SDS011;39717;47.324;8.788;2022-12-18T04:16:12;61.20;;;30.70;;
50815;SDS011;39717;47.324;8.788;2022-12-18T04:18:38;64.43;;;30.97;;
50815;SDS011;39717;47.324;8.788;2022-12-18T04:21:04;57.30;;;30.63;;
50815;SDS011;39717;47.324;8.788;2022-12-18T04:23:30;66.43;;;31.23;;
50815;SDS011;39717;47.324;8.788;2022-12-18T04:25:57;60.73;;;31.07;;
50815;SDS011;39717;47.324;8.788;2022-12-18T04:28:23;60.00;;;32.07;;
50815;SDS011;39717;47.324;8.788;2022-12-18T04:30:49;62.10;;;30.37;;
50815;SDS011;39717;47.324;8.788;2022-12-18T04:33:15;63.80;;;30.00;;
50815;SDS011;39717;47.324;8.788;2022-12-18T04:35:41;64.43;;;32.17;;
50815;SDS011;39717;47.324;8.788;2022-12-18T04:38:08;63.80;;;32.20;;
50815;SDS011;39717;47.324;8.788;2022-12-18T04:40:35;61.13;;;32.30;;
50815;SDS011;39717;47.324;8.788;2022-12-18T04:43:02;71.20;;;34.87;;
50815;SDS011;39717;47.324;8.788;2022-12-18T04:45:29;67.77;;;30.47;;
50815;SDS011;39717;47.324;8.788;2022-12-18T04:47:57;58.83;;;30.23;;
50815;SDS011;39717;47.324;8.788;2022-12-18T04:50:23;58.60;;;29.30;;
50815;SDS011;39717;47.324;8.788;2022-12-18T04:52:49;62.67;;;31.20;;
50815;SDS011;39717;47.324;8.788;2022-12-18T04:55:15;64.70;;;29.77;;
50815;SDS011;39717;47.324;8.788;2022-12-18T04:57:42;55.50;;;29.13;;
50815;SDS011;39717;47.324;8.788;2022-12-18T05:00:08;57.67;;;27.07;;
50815;SDS011;39717;47.324;8.788;2022-12-18T05:02:34;58.67;;;27.37;;
50815;SDS011;39717;47.324;8.788;2022-12-18T05:05:00;55.63;;;27.33;;
50815;SDS011;39717;47.324;8.788;2022-12-18T05:07:26;62.40;;;32.00;;
50815;SDS011;39717;47.324;8.788;2022-12-18T05:09:52;60.17;;;27.37;;
50815;SDS011;39717;47.324;8.788;2022-12-18T05:12:19;59.57;;;27.97;;
50815;SDS011;39717;47.324;8.788;2022-12-18T05:14:45;46.50;;;22.13;;
50815;SDS011;39717;47.324;8.788;2022-12-18T05:17:11;45.67;;;23.97;;
50815;SDS011;39717;47.324;8.788;2022-12-18T05:19:37;42.17;;;22.40;;
50815;SDS011;39717;47.324;8.788;2022-12-18T05:22:03;49.47;;;24.13;;
50815;SDS011;39717;47.324;8.788;2022-12-18T05:24:32;40.73;;;20.50;;
50815;SDS011;39717;47.324;8.788;2022-12-18T05:26:58;44.67;;;21.77;;
50815;SDS011;39717;47.324;8.788;2022-12-18T05:29:25;42.33;;;20.23;;
50815;SDS011;39717;47.324;8.788;2022-12-18T05:31:51;41.53;;;21.60;;
50815;SDS011;39717;47.324;8.788;2022-12-18T05:34:17;44.10;;;21.97;;
50815;SDS011;39717;47.324;8.788;2022-12-18T05:36:43;38.53;;;20.50;;
50815;SDS011;39717;47.324;8.788;2022-12-18T05:39:09;40.07;;;20.77;;
50815;SDS011;39717;47.324;8.788;2022-12-18T05:41:35;37.87;;;19.80;;
50815;SDS011;39717;47.324;8.788;2022-12-18T05:44:01;42.00;;;20.67;;
50815;SDS011;39717;47.324;8.788;2022-12-18T05:46:28;38.70;;;20.37;;
50815;SDS011;39717;47.324;8.788;2022-12-18T05:48:54;45.13;;;22.00;;
50815;SDS011;39717;47.324;8.788;2022-12-18T05:51:21;43.27;;;21.93;;
50815;SDS011;39717;47.324;8.788;2022-12-18T05:53:47;39.50;;;21.20;;
50815;SDS011;39717;47.324;8.788;2022-12-18T05:56:16;42.83;;;21.87;;
50815;SDS011;39717;47.324;8.788;2022-12-18T05:58:43;39.27;;;21.37;;
50815;SDS011;39717;47.324;8.788;2022-12-18T06:01:14;40.33;;;20.37;;
50815;SDS011;39717;47.324;8.788;2022-12-18T06:03:40;41.70;;;21.57;;
50815;SDS011;39717;47.324;8.788;2022-12-18T06:06:20;42.73;;;20.70;;
50815;SDS011;39717;47.324;8.788;2022-12-18T06:08:47;43.10;;;22.70;;
50815;SDS011;39717;47.324;8.788;2022-12-18T06:11:16;43.57;;;22.20;;
50815;SDS011;39717;47.324;8.788;2022-12-18T06:13:42;37.43;;;20.50;;
50815;SDS011;39717;47.324;8.788;2022-12-18T06:16:08;40.83;;;20.87;;
50815;SDS011;39717;47.324;8.788;2022-12-18T06:18:34;38.93;;;20.73;;
50815;SDS011;39717;47.324;8.788;2022-12-18T06:21:00;38.00;;;20.27;;
50815;SDS011;39717;47.324;8.788;2022-12-18T06:23:26;41.07;;;21.80;;
50815;SDS011;39717;47.324;8.788;2022-12-18T06:25:53;41.97;;;21.03;;
50815;SDS011;39717;47.324;8.788;2022-12-18T06:28:19;43.50;;;22.07;;
50815;SDS011;39717;47.324;8.788;2022-12-18T06:30:46;41.77;;;21.43;;
50815;SDS011;39717;47.324;8.788;2022-12-18T06:33:13;43.13;;;22.37;;
50815;SDS011;39717;47.324;8.788;2022-12-18T06:35:40;45.63;;;23.17;;
50815;SDS011;39717;47.324;8.788;2022-12-18T06:38:06;47.40;;;22.20;;
50815;SDS011;39717;47.324;8.788;2022-12-18T06:40:32;42.83;;;21.73;;
50815;SDS011;39717;47.324;8.788;2022-12-18T06:42:58;42.87;;;21.23;;
50815;SDS011;39717;47.324;8.788;2022-12-18T06:45:25;45.00;;;22.30;;
50815;SDS011;39717;47.324;8.788;2022-12-18T06:47:51;40.13;;;20.70;;
50815;SDS011;39717;47.324;8.788;2022-12-18T06:50:17;41.33;;;21.83;;
50815;SDS011;39717;47.324;8.788;2022-12-18T06:52:43;46.50;;;22.40;;
50815;SDS011;39717;47.324;8.788;2022-12-18T06:55:09;47.57;;;23.10;;
50815;SDS011;39717;47.324;8.788;2022-12-18T06:57:36;43.67;;;22.63;;
50815;SDS011;39717;47.324;8.788;2022-12-18T07:00:04;43.10;;;22.50;;
50815;SDS011;39717;47.324;8.788;2022-12-18T07:02:30;44.67;;;20.90;;
50815;SDS011;39717;47.324;8.788;2022-12-18T07:04:57;41.33;;;21.20;;
50815;SDS011;39717;47.324;8.788;2022-12-18T07:07:23;43.80;;;22.57;;
50815;SDS011;39717;47.324;8.788;2022-12-18T07:09:49;48.97;;;23.13;;
50815;SDS011;39717;47.324;8.788;2022-12-18T07:12:16;41.93;;;20.47;;
50815;SDS011;39717;47.324;8.788;2022-12-18T07:14:43;45.87;;;23.70;;
50815;SDS011;39717;47.324;8.788;2022-12-18T07:17:09;41.87;;;22.27;;
50815;SDS011;39717;47.324;8.788;2022-12-18T07:19:35;42.33;;;21.53;;
50815;SDS011;39717;47.324;8.788;2022-12-18T07:22:01;43.50;;;20.73;;
50815;SDS011;39717;47.324;8.788;2022-12-18T07:24:27;37.03;;;18.97;;
50815;SDS011;39717;47.324;8.788;2022-12-18T07:26:53;38.47;;;20.57;;
50815;SDS011;39717;47.324;8.788;2022-12-18T07:29:19;41.97;;;22.00;;
50815;SDS011;39717;47.324;8.788;2022-12-18T07:31:45;39.37;;;19.03;;
50815;SDS011;39717;47.324;8.788;2022-12-18T07:34:12;38.57;;;19.80;;
50815;SDS011;39717;47.324;8.788;2022-12-18T07:36:38;42.10;;;19.63;;
50815;SDS011;39717;47.324;8.788;2022-12-18T07:39:05;41.93;;;22.40;;
50815;SDS011;39717;47.324;8.788;2022-12-18T07:41:31;44.60;;;19.93;;
50815;SDS011;39717;47.324;8.788;2022-12-18T07:43:57;42.70;;;21.17;;
50815;SDS011;39717;47.324;8.788;2022-12-18T07:46:23;40.30;;;20.73;;
50815;SDS011;39717;47.324;8.788;2022-12-18T07:48:49;40.33;;;20.03;;
50815;SDS011;39717;47.324;8.788;2022-12-18T07:51:16;39.90;;;19.97;;
50815;SDS011;39717;47.324;8.788;2022-12-18T07:53:42;39.70;;;20.43;;
50815;SDS011;39717;47.324;8.788;2022-12-18T07:56:09;37.90;;;20.33;;
50815;SDS011;39717;47.324;8.788;2022-12-18T07:58:37;38.80;;;19.70;;
50815;SDS011;39717;47.324;8.788;2022-12-18T08:01:08;38.90;;;19.93;;
50815;SDS011;39717;47.324;8.788;2022-12-18T08:03:34;36.10;;;20.67;;
50815;SDS011;39717;47.324;8.788;2022-12-18T08:06:02;39.73;;;20.00;;
50815;SDS011;39717;47.324;8.788;2022-12-18T08:08:28;43.03;;;19.97;;
50815;SDS011;39717;47.324;8.788;2022-12-18T08:10:55;37.30;;;20.10;;
50815;SDS011;39717;47.324;8.788;2022-12-18T08:13:21;43.20;;;20.23;;
50815;SDS011;39717;47.324;8.788;2022-12-18T08:15:57;34.17;;;18.70;;
50815;SDS011;39717;47.324;8.788;2022-12-18T08:18:24;39.93;;;19.53;;
50815;SDS011;39717;47.324;8.788;2022-12-18T08:20:50;35.20;;;17.53;;
50815;SDS011;39717;47.324;8.788;2022-12-18T08:23:16;35.13;;;18.93;;
50815;SDS011;39717;47.324;8.788;2022-12-18T08:25:42;43.77;;;20.47;;
50815;SDS011;39717;47.324;8.788;2022-12-18T08:28:09;43.50;;;21.13;;
50815;SDS011;39717;47.324;8.788;2022-12-18T08:30:35;37.60;;;20.03;;
50815;SDS011;39717;47.324;8.788;2022-12-18T08:33:01;40.23;;;19.33;;
50815;SDS011;39717;47.324;8.788;2022-12-18T08:35:27;41.77;;;21.23;;
50815;SDS011;39717;47.324;8.788;2022-12-18T08:37:54;46.80;;;22.83;;
50815;SDS011;39717;47.324;8.788;2022-12-18T08:40:20;41.73;;;21.27;;
50815;SDS011;39717;47.324;8.788;2022-12-18T08:42:46;42.67;;;19.50;;
50815;SDS011;39717;47.324;8.788;2022-12-18T08:45:30;43.93;;;21.30;;
50815;SDS011;39717;47.324;8.788;2022-12-18T08:47:57;44.57;;;21.77;;
50815;SDS011;39717;47.324;8.788;2022-12-18T08:50:23;46.50;;;23.23;;
50815;SDS011;39717;47.324;8.788;2022-12-18T08:52:49;46.93;;;23.57;;
50815;SDS011;39717;47.324;8.788;2022-12-18T08:55:15;44.90;;;23.93;;
50815;SDS011;39717;47.324;8.788;2022-12-18T08:57:41;46.83;;;24.17;;
50815;SDS011;39717;47.324;8.788;2022-12-18T09:00:08;46.50;;;25.00;;
50815;SDS011;39717;47.324;8.788;2022-12-18T09:02:34;50.03;;;24.40;;
50815;SDS011;39717;47.324;8.788;2022-12-18T09:05:00;48.87;;;23.43;;
50815;SDS011;39717;47.324;8.788;2022-12-18T09:07:26;42.43;;;22.80;;
50815;SDS011;39717;47.324;8.788;2022-12-18T09:09:52;44.03;;;21.87;;
50815;SDS011;39717;47.324;8.788;2022-12-18T09:12:19;40.97;;;22.13;;
50815;SDS011;39717;47.324;8.788;2022-12-18T09:14:45;38.63;;;19.80;;
50815;SDS011;39717;47.324;8.788;2022-12-18T09:17:11;42.30;;;20.67;;
50815;SDS011;39717;47.324;8.788;2022-12-18T09:19:37;42.60;;;20.23;;
50815;SDS011;39717;47.324;8.788;2022-12-18T09:22:05;38.43;;;20.73;;
50815;SDS011;39717;47.324;8.788;2022-12-18T09:24:31;41.03;;;19.70;;
50815;SDS011;39717;47.324;8.788;2022-12-18T09:26:57;39.60;;;19.20;;
50815;SDS011;39717;47.324;8.788;2022-12-18T09:29:23;43.63;;;21.23;;
50815;SDS011;39717;47.324;8.788;2022-12-18T09:31:50;42.07;;;21.27;;
50815;SDS011;39717;47.324;8.788;2022-12-18T09:34:16;42.97;;;20.63;;
50815;SDS011;39717;47.324;8.788;2022-12-18T09:36:42;45.27;;;22.57;;
50815;SDS011;39717;47.324;8.788;2022-12-18T09:39:08;41.10;;;22.30;;
50815;SDS011;39717;47.324;8.788;2022-12-18T09:46:40;35.27;;;19.20;;
50815;SDS011;39717;47.324;8.788;2022-12-18T09:49:11;32.40;;;18.10;;
50815;SDS011;39717;47.324;8.788;2022-12-18T09:51:45;30.90;;;15.37;;
50815;SDS011;39717;47.324;8.788;2022-12-18T09:54:18;31.57;;;17.73;;
50815;SDS011;39717;47.324;8.788;2022-12-18T09:56:45;33.67;;;18.33;;
50815;SDS011;39717;47.324;8.788;2022-12-18T09:59:23;33.13;;;17.40;;
50815;SDS011;39717;47.324;8.788;2022-12-18T10:01:49;38.87;;;19.17;;
50815;SDS011;39717;47.324;8.788;2022-12-18T10:04:16;29.37;;;15.67;;
50815;SDS011;39717;47.324;8.788;2022-12-18T10:06:52;33.87;;;18.67;;
50815;SDS011;39717;47.324;8.788;2022-12-18T10:09:28;37.50;;;19.07;;
50815;SDS011;39717;47.324;8.788;2022-12-18T10:17:46;31.63;;;17.57;;
50815;SDS011;39717;47.324;8.788;2022-12-18T10:20:38;37.50;;;18.73;;
50815;SDS011;39717;47.324;8.788;2022-12-18T10:27:57;37.20;;;19.00;;
50815;SDS011;39717;47.324;8.788;2022-12-18T10:30:24;37.10;;;19.07;;
50815;SDS011;39717;47.324;8.788;2022-12-18T10:32:51;38.47;;;20.23;;
50815;SDS011;39717;47.324;8.788;2022-12-18T10:35:25;38.50;;;19.30;;
50815;SDS011;39717;47.324;8.788;2022-12-18T10:40:58;37.83;;;19.87;;
50815;SDS011;39717;47.324;8.788;2022-12-18T10:43:33;27.80;;;13.97;;
50815;SDS011;39717;47.324;8.788;2022-12-18T10:46:01;39.07;;;20.53;;
50815;SDS011;39717;47.324;8.788;2022-12-18T10:48:27;37.00;;;19.30;;
50815;SDS011;39717;47.324;8.788;2022-12-18T10:50:54;34.00;;;18.47;;
50815;SDS011;39717;47.324;8.788;2022-12-18T10:53:24;36.33;;;19.37;;
50815;SDS011;39717;47.324;8.788;2022-12-18T10:55:51;32.07;;;18.00;;
50815;SDS011;39717;47.324;8.788;2022-12-18T11:01:10;34.07;;;18.80;;
50815;SDS011;39717;47.324;8.788;2022-12-18T11:03:38;33.33;;;18.00;;
50815;SDS011;39717;47.324;8.788;2022-12-18T11:06:14;32.73;;;16.07;;
50815;SDS011;39717;47.324;8.788;2022-12-18T11:08:41;36.43;;;18.40;;
50815;SDS011;39717;47.324;8.788;2022-12-18T11:11:19;33.23;;;18.23;;
50815;SDS011;39717;47.324;8.788;2022-12-18T11:13:59;33.73;;;18.47;;
50815;SDS011;39717;47.324;8.788;2022-12-18T11:16:27;33.17;;;18.57;;
50815;SDS011;39717;47.324;8.788;2022-12-18T11:18:53;29.40;;;17.07;;
50815;SDS011;39717;47.324;8.788;2022-12-18T11:21:20;35.80;;;19.00;;
50815;SDS011;39717;47.324;8.788;2022-12-18T11:23:50;34.40;;;17.80;;
50815;SDS011;39717;47.324;8.788;2022-12-18T11:26:17;36.50;;;19.57;;
50815;SDS011;39717;47.324;8.788;2022-12-18T11:33:36;34.37;;;18.93;;
50815;SDS011;39717;47.324;8.788;2022-12-18T11:36:03;33.33;;;17.90;;
50815;SDS011;39717;47.324;8.788;2022-12-18T11:38:36;34.80;;;19.23;;
50815;SDS011;39717;47.324;8.788;2022-12-18T11:46:15;31.27;;;17.93;;
50815;SDS011;39717;47.324;8.788;2022-12-18T11:48:48;36.37;;;19.87;;
50815;SDS011;39717;47.324;8.788;2022-12-18T11:51:19;34.07;;;18.40;;
50815;SDS011;39717;47.324;8.788;2022-12-18T11:53:48;32.00;;;17.70;;
50815;SDS011;39717;47.324;8.788;2022-12-18T11:59:04;35.30;;;19.20;;
50815;SDS011;39717;47.324;8.788;2022-12-18T12:01:48;33.60;;;18.87;;
50815;SDS011;39717;47.324;8.788;2022-12-18T12:04:31;34.57;;;18.87;;
50815;SDS011;39717;47.324;8.788;2022-12-18T12:15:10;34.47;;;19.60;;
50815;SDS011;39717;47.324;8.788;2022-12-18T12:20:38;32.97;;;17.10;;
50815;SDS011;39717;47.324;8.788;2022-12-18T12:23:16;39.27;;;21.47;;
50815;SDS011;39717;47.324;8.788;2022-12-18T12:39:11;38.80;;;20.50;;
50815;SDS011;39717;47.324;8.788;2022-12-18T12:41:39;37.90;;;19.00;;
50815;SDS011;39717;47.324;8.788;2022-12-18T12:44:27;38.77;;;20.43;;
50815;SDS011;39717;47.324;8.788;2022-12-18T12:46:57;39.93;;;20.63;;
50815;SDS011;39717;47.324;8.788;2022-12-18T12:49:29;42.27;;;21.83;;
50815;SDS011;39717;47.324;8.788;2022-12-18T12:51:59;38.13;;;19.67;;
50815;SDS011;39717;47.324;8.788;2022-12-18T12:54:26;40.93;;;21.67;;
50815;SDS011;39717;47.324;8.788;2022-12-18T12:57:09;36.20;;;20.70;;
50815;SDS011;39717;47.324;8.788;2022-12-18T13:07:20;35.73;;;19.27;;
50815;SDS011;39717;47.324;8.788;2022-12-18T13:12:35;35.83;;;20.50;;
50815;SDS011;39717;47.324;8.788;2022-12-18T13:15:20;41.77;;;22.23;;
50815;SDS011;39717;47.324;8.788;2022-12-18T13:17:47;41.47;;;21.23;;
50815;SDS011;39717;47.324;8.788;2022-12-18T13:20:14;44.10;;;22.27;;
50815;SDS011;39717;47.324;8.788;2022-12-18T13:22:45;38.13;;;20.77;;
50815;SDS011;39717;47.324;8.788;2022-12-18T13:25:32;35.80;;;18.67;;
50815;SDS011;39717;47.324;8.788;2022-12-18T13:28:00;43.30;;;22.57;;
50815;SDS011;39717;47.324;8.788;2022-12-18T13:43:54;39.57;;;21.70;;
50815;SDS011;39717;47.324;8.788;2022-12-18T13:46:24;38.57;;;20.50;;
50815;SDS011;39717;47.324;8.788;2022-12-18T13:48:53;39.43;;;20.33;;
50815;SDS011;39717;47.324;8.788;2022-12-18T13:51:21;39.90;;;19.73;;
50815;SDS011;39717;47.324;8.788;2022-12-18T13:54:18;34.90;;;19.30;;
50815;SDS011;39717;47.324;8.788;2022-12-18T13:56:42;39.43;;;21.13;;
50815;SDS011;39717;47.324;8.788;2022-12-18T13:59:13;39.13;;;20.83;;
50815;SDS011;39717;47.324;8.788;2022-12-18T14:01:44;35.57;;;17.47;;
50815;SDS011;39717;47.324;8.788;2022-12-18T14:04:12;39.97;;;20.07;;
50815;SDS011;39717;47.324;8.788;2022-12-18T14:06:38;42.10;;;20.80;;
50815;SDS011;39717;47.324;8.788;2022-12-18T14:09:05;39.77;;;20.10;;
50815;SDS011;39717;47.324;8.788;2022-12-18T14:11:31;39.53;;;21.03;;
50815;SDS011;39717;47.324;8.788;2022-12-18T14:13:58;39.23;;;20.53;;
50815;SDS011;39717;47.324;8.788;2022-12-18T14:16:24;39.93;;;21.40;;
50815;SDS011;39717;47.324;8.788;2022-12-18T14:18:54;40.57;;;21.77;;
50815;SDS011;39717;47.324;8.788;2022-12-18T14:21:28;43.07;;;22.23;;
50815;SDS011;39717;47.324;8.788;2022-12-18T14:24:04;42.07;;;19.80;;
50815;SDS011;39717;47.324;8.788;2022-12-18T14:26:31;40.00;;;19.60;;
50815;SDS011;39717;47.324;8.788;2022-12-18T14:28:59;45.33;;;22.07;;
50815;SDS011;39717;47.324;8.788;2022-12-18T14:31:27;43.63;;;21.07;;
50815;SDS011;39717;47.324;8.788;2022-12-18T14:33:54;41.23;;;22.07;;
50815;SDS011;39717;47.324;8.788;2022-12-18T14:36:22;42.00;;;21.73;;
50815;SDS011;39717;47.324;8.788;2022-12-18T14:38:52;42.17;;;21.30;;
50815;SDS011;39717;47.324;8.788;2022-12-18T14:41:20;41.63;;;22.23;;
50815;SDS011;39717;47.324;8.788;2022-12-18T14:43:47;40.47;;;21.77;;
50815;SDS011;39717;47.324;8.788;2022-12-18T14:48:52;41.03;;;21.80;;
50815;SDS011;39717;47.324;8.788;2022-12-18T14:51:20;38.03;;;20.07;;
50815;SDS011;39717;47.324;8.788;2022-12-18T14:53:56;45.60;;;20.87;;
50815;SDS011;39717;47.324;8.788;2022-12-18T14:56:31;42.67;;;21.40;;
50815;SDS011;39717;47.324;8.788;2022-12-18T14:59:17;41.30;;;20.70;;
50815;SDS011;39717;47.324;8.788;2022-12-18T15:01:47;43.90;;;21.33;;
50815;SDS011;39717;47.324;8.788;2022-12-18T15:04:34;40.93;;;21.20;;
50815;SDS011;39717;47.324;8.788;2022-12-18T15:15:43;39.70;;;20.80;;
50815;SDS011;39717;47.324;8.788;2022-12-18T15:17:58;40.73;;;20.80;;
50815;SDS011;39717;47.324;8.788;2022-12-18T15:20:25;40.53;;;20.73;;
50815;SDS011;39717;47.324;8.788;2022-12-18T15:22:51;44.73;;;22.40;;
50815;SDS011;39717;47.324;8.788;2022-12-18T15:27:49;48.97;;;22.47;;
50815;SDS011;39717;47.324;8.788;2022-12-18T15:30:19;41.03;;;20.63;;
50815;SDS011;39717;47.324;8.788;2022-12-18T15:32:46;42.80;;;21.60;;
50815;SDS011;39717;47.324;8.788;2022-12-18T15:35:15;38.53;;;19.93;;
50815;SDS011;39717;47.324;8.788;2022-12-18T15:37:42;39.53;;;20.47;;
50815;SDS011;39717;47.324;8.788;2022-12-18T15:40:11;37.73;;;20.50;;
50815;SDS011;39717;47.324;8.788;2022-12-18T15:42:38;39.67;;;22.10;;
50815;SDS011;39717;47.324;8.788;2022-12-18T15:45:22;42.97;;;21.07;;
50815;SDS011;39717;47.324;8.788;2022-12-18T15:47:49;40.60;;;21.93;;
50815;SDS011;39717;47.324;8.788;2022-12-18T15:50:15;42.83;;;22.90;;
50815;SDS011;39717;47.324;8.788;2022-12-18T15:52:42;45.10;;;23.03;;
50815;SDS011;39717;47.324;8.788;2022-12-18T15:55:12;41.97;;;21.50;;
50815;SDS011;39717;47.324;8.788;2022-12-18T15:57:57;37.50;;;20.73;;
50815;SDS011;39717;47.324;8.788;2022-12-18T16:00:23;42.73;;;21.83;;
50815;SDS011;39717;47.324;8.788;2022-12-18T16:02:49;45.03;;;21.43;;
50815;SDS011;39717;47.324;8.788;2022-12-18T16:05:16;46.50;;;22.27;;
50815;SDS011;39717;47.324;8.788;2022-12-18T16:07:43;43.07;;;22.67;;
50815;SDS011;39717;47.324;8.788;2022-12-18T16:10:09;46.50;;;23.77;;
50815;SDS011;39717;47.324;8.788;2022-12-18T16:12:36;40.83;;;21.53;;
50815;SDS011;39717;47.324;8.788;2022-12-18T16:15:03;53.07;;;24.17;;
50815;SDS011;39717;47.324;8.788;2022-12-18T16:17:30;47.03;;;23.57;;
50815;SDS011;39717;47.324;8.788;2022-12-18T16:19:56;48.60;;;23.73;;
50815;SDS011;39717;47.324;8.788;2022-12-18T16:22:23;47.00;;;23.70;;